createdAt,value
2023-04-25T00:01:00.100Z,1.60
2023-04-25T00:02:11.756Z,1.75
2023-04-25T00:03:26.293Z,1.20
2023-04-25T00:04:39.316Z,2.15
2023-04-25T00:05:52.759Z,1.52
2023-04-25T00:07:04.463Z,1.35
2023-04-25T00:08:15.944Z,1.00
2023-04-25T00:09:27.866Z,1.17
2023-04-25T00:10:39.327Z,1.08
2023-04-25T00:11:50.939Z,1.40
2023-04-25T00:13:03.497Z,0.82
2023-04-25T00:14:15.159Z,0.88
2023-04-25T00:15:27.022Z,0.80
2023-04-25T00:16:38.627Z,1.15
2023-04-25T00:17:50.234Z,1.10
2023-04-25T00:19:03.334Z,1.30
2023-04-25T00:20:14.879Z,1.40
2023-04-25T00:21:26.596Z,1.27
2023-04-25T00:22:41.046Z,1.17
2023-04-25T00:23:56.021Z,0.90
2023-04-25T00:25:07.853Z,1.23
2023-04-25T00:26:19.338Z,0.98
2023-04-25T00:27:30.924Z,1.27
2023-04-25T00:28:42.380Z,0.98
2023-04-25T00:29:53.769Z,1.38
2023-04-25T00:31:05.350Z,0.80
2023-04-25T00:32:16.794Z,1.02
2023-04-25T00:33:28.255Z,1.15
2023-04-25T00:34:39.663Z,0.95
2023-04-25T00:35:51.122Z,0.90
2023-04-25T00:37:05.888Z,0.98
2023-04-25T00:38:17.700Z,1.35
2023-04-25T00:39:29.176Z,1.27
2023-04-25T00:40:40.577Z,1.15
2023-04-25T00:41:54.263Z,0.85
2023-04-25T00:43:05.795Z,0.80
2023-04-25T00:44:18.109Z,1.10
2023-04-25T00:45:33.654Z,1.40
2023-04-25T00:46:45.711Z,1.23
2023-04-25T00:47:57.804Z,1.30
2023-04-25T00:49:09.268Z,0.90
2023-04-25T00:50:20.723Z,1.90
2023-04-25T00:51:33.827Z,1.30
2023-04-25T00:52:45.790Z,1.20
2023-04-25T00:53:57.468Z,1.13
2023-04-25T00:55:09.217Z,0.85
2023-04-25T00:56:20.866Z,0.90
2023-04-25T00:57:32.564Z,1.63
2023-04-25T00:58:44.243Z,1.58
2023-04-25T00:59:56.758Z,1.33
2023-04-25T01:01:09.238Z,1.38
2023-04-25T01:02:21.827Z,1.50
2023-04-25T01:03:41.834Z,1.27
2023-04-25T01:04:53.832Z,1.40
2023-04-25T01:06:05.456Z,1.00
2023-04-25T01:07:17.278Z,1.42
2023-04-25T01:08:28.963Z,1.35
2023-04-25T01:09:40.534Z,1.40
2023-04-25T01:10:52.059Z,1.27
2023-04-25T01:12:03.912Z,0.95
2023-04-25T01:13:15.593Z,1.15
2023-04-25T01:14:27.004Z,1.05
2023-04-25T01:15:38.479Z,1.40
2023-04-25T01:16:50.015Z,1.02
2023-04-25T01:18:03.200Z,0.90
2023-04-25T01:19:17.482Z,0.98
2023-04-25T01:20:29.842Z,0.93
2023-04-25T01:21:41.478Z,1.52
2023-04-25T01:22:53.613Z,1.27
2023-04-25T01:24:05.382Z,1.73
2023-04-25T01:25:16.967Z,1.50
2023-04-25T01:26:28.503Z,1.30
2023-04-25T01:27:40.598Z,1.40
2023-04-25T01:28:52.526Z,1.33
2023-04-25T01:30:04.536Z,1.77
2023-04-25T01:31:16.702Z,0.95
2023-04-25T01:32:28.157Z,1.20
2023-04-25T01:33:39.799Z,1.40
2023-04-25T01:34:51.274Z,1.25
2023-04-25T01:36:02.810Z,1.30
2023-04-25T01:37:14.289Z,1.10
2023-04-25T01:38:25.798Z,1.13
2023-04-25T01:39:37.318Z,1.30
2023-04-25T01:40:49.989Z,1.38
2023-04-25T01:42:01.511Z,1.33
2023-04-25T01:43:13.803Z,1.52
2023-04-25T01:44:25.274Z,1.25
2023-04-25T01:45:37.521Z,1.10
2023-04-25T01:46:49.041Z,1.48
2023-04-25T01:48:00.576Z,1.50
2023-04-25T01:49:12.109Z,2.22
2023-04-25T01:50:23.799Z,7.28
2023-04-25T01:51:35.298Z,7.53
2023-04-25T01:52:46.793Z,5.82
2023-04-25T01:54:00.481Z,4.63
2023-04-25T01:55:12.525Z,3.17
2023-04-25T01:56:23.946Z,2.30
2023-04-25T01:57:35.464Z,2.47
2023-04-25T01:58:47.190Z,3.45
2023-04-25T01:59:59.933Z,4.38
2023-04-25T02:01:11.521Z,5.00
2023-04-25T02:02:23.272Z,4.15
2023-04-25T02:03:35.730Z,2.90
2023-04-25T02:04:47.473Z,3.65
2023-04-25T02:05:59.013Z,1.90
2023-04-25T02:07:10.508Z,2.08
2023-04-25T02:08:21.912Z,1.92
2023-04-25T02:09:33.390Z,2.15
2023-04-25T02:10:44.853Z,1.73
2023-04-25T02:11:56.343Z,1.58
2023-04-25T02:13:07.883Z,1.88
2023-04-25T02:14:19.396Z,1.65
2023-04-25T02:15:31.003Z,1.65
2023-04-25T02:16:44.982Z,1.60
2023-04-25T02:17:57.021Z,1.40
2023-04-25T02:19:08.475Z,1.42
2023-04-25T02:20:21.565Z,1.52
2023-04-25T02:21:33.558Z,1.50
2023-04-25T02:22:44.986Z,1.85
2023-04-25T02:23:56.413Z,1.40
2023-04-25T02:25:08.073Z,1.60
2023-04-25T02:26:19.527Z,1.45
2023-04-25T02:27:31.202Z,1.45
2023-04-25T02:28:42.655Z,1.60
2023-04-25T02:29:54.086Z,2.15
2023-04-25T02:31:05.915Z,2.83
2023-04-25T02:32:17.360Z,2.80
2023-04-25T02:33:28.792Z,2.58
2023-04-25T02:34:40.586Z,2.95
2023-04-25T02:35:51.990Z,2.30
2023-04-25T02:37:03.426Z,2.30
2023-04-25T02:38:14.982Z,1.90
2023-04-25T02:39:28.357Z,2.22
2023-04-25T02:40:39.788Z,1.45
2023-04-25T02:41:51.202Z,2.22
2023-04-25T02:43:02.681Z,1.73
2023-04-25T02:44:14.149Z,1.70
2023-04-25T02:45:25.635Z,1.42
2023-04-25T02:46:39.420Z,1.65
2023-04-25T02:47:51.364Z,2.00
2023-04-25T02:49:02.796Z,1.88
2023-04-25T02:50:14.254Z,1.73
2023-04-25T02:51:25.993Z,1.88
2023-04-25T02:52:37.478Z,1.77
2023-04-25T02:53:49.154Z,1.50
2023-04-25T02:55:00.807Z,2.10
2023-04-25T02:56:12.207Z,1.92
2023-04-25T02:57:23.611Z,1.27
2023-04-25T02:58:35.082Z,1.55
2023-04-25T02:59:46.533Z,2.03
2023-04-25T03:00:58.047Z,1.52
2023-04-25T03:02:09.559Z,1.70
2023-04-25T03:03:22.943Z,1.77
2023-04-25T03:04:34.668Z,1.75
2023-04-25T03:05:47.860Z,1.80
2023-04-25T03:06:59.362Z,1.95
2023-04-25T03:08:10.822Z,1.58
2023-04-25T03:09:22.272Z,1.48
2023-04-25T03:10:34.031Z,1.38
2023-04-25T03:11:45.926Z,2.25
2023-04-25T03:12:57.371Z,3.80
2023-04-25T03:14:08.823Z,4.72
2023-04-25T03:15:20.877Z,3.03
2023-04-25T03:16:32.666Z,1.88
2023-04-25T03:17:44.175Z,1.75
2023-04-25T03:18:55.602Z,1.80
2023-04-25T03:20:09.230Z,2.20
2023-04-25T03:21:20.716Z,1.80
2023-04-25T03:22:32.300Z,1.98
2023-04-25T03:23:43.761Z,2.90
2023-04-25T03:24:55.644Z,2.88
2023-04-25T03:26:07.199Z,2.78
2023-04-25T03:27:18.686Z,3.40
2023-04-25T03:28:30.238Z,3.17
2023-04-25T03:29:41.856Z,2.40
2023-04-25T03:30:53.360Z,2.42
2023-04-25T03:32:05.008Z,2.30
2023-04-25T03:33:16.522Z,2.97
2023-04-25T03:34:28.196Z,3.38
2023-04-25T03:35:39.763Z,3.45
2023-04-25T03:36:51.212Z,4.45
2023-04-25T03:38:02.623Z,7.88
2023-04-25T03:39:14.104Z,6.18
2023-04-25T03:40:25.538Z,5.20
2023-04-25T03:41:36.941Z,5.20
2023-04-25T03:42:48.398Z,3.85
2023-04-25T03:43:59.833Z,3.80
2023-04-25T03:45:11.348Z,2.92
2023-04-25T03:46:22.912Z,3.88
2023-04-25T03:47:34.442Z,4.28
2023-04-25T03:48:45.900Z,7.75
2023-04-25T03:49:57.306Z,11.27
2023-04-25T03:51:08.740Z,11.85
2023-04-25T03:52:20.236Z,11.32
2023-04-25T03:53:31.694Z,6.10
2023-04-25T03:54:43.126Z,4.03
2023-04-25T03:55:54.534Z,3.65
2023-04-25T03:57:06.042Z,2.67
2023-04-25T03:58:17.494Z,2.88
2023-04-25T03:59:28.921Z,3.10
2023-04-25T04:00:40.351Z,3.08
2023-04-25T04:01:51.827Z,3.58
2023-04-25T04:03:03.474Z,3.70
2023-04-25T04:04:15.385Z,3.25
2023-04-25T04:05:27.271Z,2.65
2023-04-25T04:06:38.964Z,2.78
2023-04-25T04:07:50.518Z,2.22
2023-04-25T04:09:02.006Z,3.42
2023-04-25T04:10:13.476Z,2.45
2023-04-25T04:11:25.211Z,2.78
2023-04-25T04:12:37.926Z,2.67
2023-04-25T04:13:49.493Z,2.85
2023-04-25T04:15:01.061Z,3.17
2023-04-25T04:16:12.617Z,3.72
2023-04-25T04:17:24.149Z,3.53
2023-04-25T04:18:35.602Z,7.85
2023-04-25T04:19:47.122Z,8.65
2023-04-25T04:20:59.345Z,7.35
2023-04-25T04:22:11.196Z,4.05
2023-04-25T04:23:23.821Z,3.38
2023-04-25T04:24:35.320Z,5.85
2023-04-25T04:25:47.965Z,4.78
2023-04-25T04:26:59.986Z,4.15
2023-04-25T04:28:12.254Z,4.90
2023-04-25T04:29:23.789Z,4.15
2023-04-25T04:30:37.306Z,4.20
2023-04-25T04:31:50.459Z,3.13
2023-04-25T04:33:02.760Z,3.00
2023-04-25T04:34:14.202Z,8.00
2023-04-25T04:35:25.878Z,4.35
2023-04-25T04:36:37.290Z,2.65
2023-04-25T04:37:48.958Z,2.42
2023-04-25T04:39:00.412Z,2.83
2023-04-25T04:40:12.276Z,2.72
2023-04-25T04:41:23.920Z,2.30
2023-04-25T04:42:37.219Z,2.00
2023-04-25T04:43:49.134Z,3.15
2023-04-25T04:45:02.565Z,2.10
2023-04-25T04:46:14.208Z,2.58
2023-04-25T04:47:26.844Z,2.35
2023-04-25T04:48:41.162Z,2.65
2023-04-25T04:49:52.637Z,2.75
2023-04-25T04:51:04.074Z,2.25
2023-04-25T04:52:15.492Z,2.55
2023-04-25T04:53:27.096Z,2.10
2023-04-25T04:54:38.585Z,2.30
2023-04-25T04:55:50.923Z,2.55
2023-04-25T04:57:02.382Z,2.33
2023-04-25T04:58:13.866Z,2.67
2023-04-25T04:59:25.348Z,5.25
2023-04-25T05:00:36.888Z,4.57
2023-04-25T05:01:48.367Z,4.63
2023-04-25T05:03:00.232Z,4.05
2023-04-25T05:04:11.909Z,2.38
2023-04-25T05:05:23.516Z,4.25
2023-04-25T05:06:35.035Z,4.95
2023-04-25T05:07:46.449Z,3.10
2023-04-25T05:08:58.464Z,2.83
2023-04-25T05:10:10.041Z,2.45
2023-04-25T05:11:22.037Z,2.13
2023-04-25T05:12:34.263Z,2.63
2023-04-25T05:13:47.448Z,3.28
2023-04-25T05:14:58.881Z,2.40
2023-04-25T05:16:10.548Z,7.60
2023-04-25T05:17:22.095Z,5.10
2023-04-25T05:18:33.571Z,3.85
2023-04-25T05:19:45.168Z,2.15
2023-04-25T05:20:56.698Z,2.25
2023-04-25T05:22:08.140Z,3.58
2023-04-25T05:23:19.548Z,36.05
2023-04-25T05:24:31.675Z,12.32
2023-04-25T05:25:43.159Z,18.60
2023-04-25T05:26:54.583Z,25.52
2023-04-25T05:28:06.789Z,5.32
2023-04-25T05:29:18.213Z,3.42
2023-04-25T05:30:29.678Z,1.67
2023-04-25T05:31:41.334Z,1.77
2023-04-25T05:32:52.826Z,1.60
2023-04-25T05:34:04.270Z,1.58
2023-04-25T05:35:16.044Z,2.33
2023-04-25T05:36:28.279Z,16.73
2023-04-25T05:37:39.656Z,15.85
2023-04-25T05:38:51.350Z,12.00
2023-04-25T05:40:03.013Z,14.63
2023-04-25T05:41:14.503Z,5.38
2023-04-25T05:42:26.000Z,3.63
2023-04-25T05:43:37.406Z,4.25
2023-04-25T05:44:48.867Z,3.63
2023-04-25T05:46:00.437Z,2.47
2023-04-25T05:47:12.127Z,2.75
2023-04-25T05:48:23.564Z,3.00
2023-04-25T05:49:35.457Z,1.90
2023-04-25T05:50:46.929Z,1.83
2023-04-25T05:51:58.429Z,2.63
2023-04-25T05:53:10.327Z,2.50
2023-04-25T05:54:21.775Z,2.20
2023-04-25T05:55:33.270Z,1.95
2023-04-25T05:56:44.771Z,1.13
2023-04-25T05:57:56.197Z,1.15
2023-04-25T05:59:07.678Z,1.52
2023-04-25T06:00:19.947Z,1.40
2023-04-25T06:01:31.779Z,1.40
2023-04-25T06:02:43.743Z,1.70
2023-04-25T06:03:55.508Z,1.35
2023-04-25T06:05:07.742Z,1.45
2023-04-25T06:06:19.534Z,2.08
2023-04-25T06:07:31.874Z,1.70
2023-04-25T06:08:43.339Z,1.30
2023-04-25T06:09:54.810Z,1.58
2023-04-25T06:11:06.323Z,2.00
2023-04-25T06:12:17.751Z,1.92
2023-04-25T06:13:29.156Z,2.05
2023-04-25T06:14:40.576Z,1.75
2023-04-25T06:15:52.037Z,1.90
2023-04-25T06:17:07.532Z,2.15
2023-04-25T06:18:18.948Z,4.40
2023-04-25T06:19:30.514Z,3.65
2023-04-25T06:20:41.907Z,3.67
2023-04-25T06:21:53.325Z,2.97
2023-04-25T06:23:04.751Z,2.35
2023-04-25T06:24:16.152Z,4.97
2023-04-25T06:25:27.543Z,3.55
2023-04-25T06:26:38.959Z,2.83
2023-04-25T06:27:50.550Z,2.33
2023-04-25T06:29:02.122Z,2.25
2023-04-25T06:30:13.616Z,2.15
2023-04-25T06:31:25.112Z,2.47
2023-04-25T06:32:36.698Z,2.00
2023-04-25T06:33:49.513Z,2.20
2023-04-25T06:35:01.479Z,5.53
2023-04-25T06:36:12.986Z,3.60
2023-04-25T06:37:24.501Z,2.70
2023-04-25T06:38:36.437Z,3.13
2023-04-25T06:39:47.856Z,2.33
2023-04-25T06:40:59.325Z,2.60
2023-04-25T06:42:11.005Z,3.60
2023-04-25T06:43:22.448Z,2.23
2023-04-25T06:44:34.072Z,3.17
2023-04-25T06:45:48.304Z,1.67
2023-04-25T06:47:00.066Z,2.60
2023-04-25T06:48:11.613Z,1.90
2023-04-25T06:49:23.634Z,3.10
2023-04-25T06:50:35.087Z,3.30
2023-04-25T06:51:46.526Z,1.63
2023-04-25T06:52:57.960Z,2.00
2023-04-25T06:54:09.536Z,2.37
2023-04-25T06:55:21.090Z,2.50
2023-04-25T06:56:32.569Z,2.03
2023-04-25T06:57:44.035Z,1.40
2023-04-25T06:58:55.508Z,2.40
2023-04-25T07:00:10.031Z,1.50
2023-04-25T07:01:21.578Z,1.33
2023-04-25T07:02:33.142Z,1.77
2023-04-25T07:03:44.802Z,1.90
2023-04-25T07:05:00.754Z,1.63
2023-04-25T07:06:12.255Z,1.43
2023-04-25T07:07:23.675Z,1.53
2023-04-25T07:08:35.377Z,1.57
2023-04-25T07:09:46.838Z,1.60
2023-04-25T07:10:58.279Z,1.70
2023-04-25T07:12:09.737Z,1.80
2023-04-25T07:13:21.205Z,1.67
2023-04-25T07:14:32.632Z,2.43
2023-04-25T07:15:44.714Z,3.23
2023-04-25T07:16:58.003Z,4.13
2023-04-25T07:18:09.527Z,1.60
2023-04-25T07:19:20.966Z,1.60
2023-04-25T07:20:33.753Z,1.23
2023-04-25T07:21:45.179Z,1.73
2023-04-25T07:22:56.682Z,1.50
2023-04-25T07:24:08.125Z,1.27
2023-04-25T07:25:19.620Z,1.63
2023-04-25T07:26:31.056Z,1.90
2023-04-25T07:27:42.541Z,1.97
2023-04-25T07:28:55.590Z,1.40
2023-04-25T07:30:07.421Z,1.47
2023-04-25T07:31:19.421Z,1.47
2023-04-25T07:32:31.328Z,1.60
2023-04-25T07:33:42.788Z,2.50
2023-04-25T07:34:54.383Z,2.03
2023-04-25T07:36:06.229Z,1.70
2023-04-25T07:37:19.763Z,1.70
2023-04-25T07:38:31.252Z,2.13
2023-04-25T07:39:43.008Z,2.00
2023-04-25T07:40:54.533Z,1.00
2023-04-25T07:42:08.971Z,1.93
2023-04-25T07:43:20.487Z,2.63
2023-04-25T07:44:31.951Z,2.10
2023-04-25T07:45:47.004Z,1.40
2023-04-25T07:46:58.700Z,1.73
2023-04-25T07:48:10.108Z,1.53
2023-04-25T07:49:21.556Z,1.30
2023-04-25T07:50:32.989Z,1.50
2023-04-25T07:51:44.562Z,1.70
2023-04-25T07:52:56.054Z,1.50
2023-04-25T07:54:07.961Z,1.90
2023-04-25T07:55:19.514Z,1.77
2023-04-25T07:56:38.554Z,1.27
2023-04-25T07:57:56.815Z,1.70
2023-04-25T07:59:08.274Z,1.80
2023-04-25T08:00:19.820Z,1.73
2023-04-25T08:01:31.518Z,2.20
2023-04-25T08:02:43.074Z,1.40
2023-04-25T08:03:54.745Z,1.60
2023-04-25T08:05:09.281Z,1.83
2023-04-25T08:06:20.969Z,1.87
2023-04-25T08:07:32.494Z,1.80
2023-04-25T08:08:43.893Z,1.80
2023-04-25T08:09:55.651Z,2.80
2023-04-25T08:11:07.103Z,2.67
2023-04-25T08:12:18.525Z,2.27
2023-04-25T08:13:30.005Z,3.77
2023-04-25T08:14:41.495Z,1.80
2023-04-25T08:15:52.957Z,2.20
2023-04-25T08:17:04.866Z,2.47
2023-04-25T08:18:17.725Z,2.53
2023-04-25T08:19:29.434Z,2.10
2023-04-25T08:20:41.639Z,1.70
2023-04-25T08:21:53.102Z,1.80
2023-04-25T08:23:04.608Z,1.80
2023-04-25T08:24:16.048Z,1.60
2023-04-25T08:25:27.546Z,1.83
2023-04-25T08:26:39.988Z,2.17
2023-04-25T08:27:51.609Z,1.87
2023-04-25T08:29:03.041Z,2.17
2023-04-25T08:30:14.545Z,1.90
2023-04-25T08:31:26.236Z,2.67
2023-04-25T08:32:39.719Z,3.77
2023-04-25T08:33:52.939Z,3.73
2023-04-25T08:35:04.607Z,3.20
2023-04-25T08:36:24.252Z,4.00
2023-04-25T08:37:47.136Z,3.47
2023-04-25T08:38:58.999Z,2.80
2023-04-25T08:40:12.862Z,3.10
2023-04-25T08:41:24.605Z,2.60
2023-04-25T08:42:36.899Z,2.87
2023-04-25T08:43:49.387Z,2.63
2023-04-25T08:45:03.012Z,3.17
2023-04-25T08:46:18.569Z,3.03
2023-04-25T08:47:30.971Z,2.80
2023-04-25T08:48:43.427Z,2.50
2023-04-25T08:49:55.926Z,2.77
2023-04-25T08:52:25.705Z,2.97
2023-04-25T08:53:38.512Z,2.27
2023-04-25T08:54:50.603Z,3.13
2023-04-25T08:56:06.839Z,2.70
2023-04-25T08:57:18.344Z,2.37
2023-04-25T08:58:29.955Z,2.30
2023-04-25T08:59:45.358Z,2.87
2023-04-25T09:00:57.071Z,2.50
2023-04-25T09:02:12.429Z,2.43
2023-04-25T09:03:24.018Z,2.03
2023-04-25T09:04:36.003Z,2.63
2023-04-25T09:05:47.463Z,2.87
2023-04-25T09:06:59.894Z,3.10
2023-04-25T09:08:11.625Z,2.90
2023-04-25T09:09:25.047Z,4.53
2023-04-25T09:10:36.884Z,3.37
2023-04-25T09:11:48.349Z,2.80
2023-04-25T09:13:03.137Z,3.07
2023-04-25T09:14:18.431Z,2.30
2023-04-25T09:15:29.848Z,2.00
2023-04-25T09:16:56.556Z,2.30
2023-04-25T09:18:08.055Z,2.50
2023-04-25T09:19:38.184Z,2.03
2023-04-25T09:22:07.024Z,2.50
2023-04-25T09:23:20.839Z,2.33
2023-04-25T09:24:33.718Z,2.23
2023-04-25T09:25:46.873Z,2.43
2023-04-25T09:26:58.403Z,2.17
2023-04-25T09:28:11.083Z,2.20
2023-04-25T09:29:29.606Z,2.10
2023-04-25T09:30:41.275Z,2.70
2023-04-25T09:31:52.726Z,2.47
2023-04-25T09:33:07.766Z,2.70
2023-04-25T09:34:19.293Z,1.60
2023-04-25T09:35:35.951Z,1.87
2023-04-25T09:36:47.695Z,1.93
2023-04-25T09:37:59.219Z,2.00
2023-04-25T09:39:16.303Z,2.23
2023-04-25T09:40:27.806Z,1.53
2023-04-25T09:41:40.076Z,2.30
2023-04-25T09:42:51.604Z,2.30
2023-04-25T09:44:03.632Z,2.80
2023-04-25T09:45:16.617Z,2.17
2023-04-25T09:46:34.341Z,1.73
2023-04-25T09:47:45.891Z,3.00
2023-04-25T09:48:57.366Z,2.67
2023-04-25T09:50:14.914Z,3.50
2023-04-25T09:51:26.875Z,2.83
2023-04-25T09:52:38.343Z,1.50
2023-04-25T09:53:53.186Z,2.53
2023-04-25T09:55:05.280Z,3.37
2023-04-25T09:56:17.221Z,7.73
2023-04-25T09:57:28.650Z,3.10
2023-04-25T09:58:41.253Z,2.00
2023-04-25T09:59:54.336Z,3.20
2023-04-25T10:01:07.605Z,1.70
2023-04-25T10:02:21.288Z,2.00
2023-04-25T10:03:34.001Z,2.23
2023-04-25T10:04:48.723Z,1.60
2023-04-25T10:06:00.776Z,2.40
2023-04-25T10:07:13.098Z,2.53
2023-04-25T10:08:24.947Z,1.27
2023-04-25T10:09:40.864Z,1.13
2023-04-25T10:10:52.337Z,1.17
2023-04-25T10:12:04.599Z,1.10
2023-04-25T10:13:16.306Z,1.50
2023-04-25T10:14:27.852Z,1.30
2023-04-25T10:15:40.350Z,1.20
2023-04-25T10:16:54.704Z,2.37
2023-04-25T10:18:07.522Z,2.87
2023-04-25T10:19:19.062Z,3.53
2023-04-25T10:20:31.226Z,2.23
2023-04-25T10:21:47.707Z,1.73
2023-04-25T10:23:00.854Z,2.07
2023-04-25T10:24:12.637Z,1.53
2023-04-25T10:25:24.332Z,1.40
2023-04-25T10:26:35.832Z,1.20
2023-04-25T10:27:47.234Z,1.10
2023-04-25T10:29:02.056Z,0.70
2023-04-25T10:30:17.067Z,1.17
2023-04-25T10:31:30.530Z,1.20
2023-04-25T10:32:46.438Z,1.70
2023-04-25T10:33:58.068Z,2.00
2023-04-25T10:35:13.243Z,1.80
2023-04-25T10:36:25.629Z,1.03
2023-04-25T10:37:38.916Z,0.83
2023-04-25T10:38:52.352Z,0.77
2023-04-25T10:40:10.912Z,1.13
2023-04-25T10:41:23.937Z,0.87
2023-04-25T10:42:35.510Z,0.87
2023-04-25T10:43:47.566Z,1.23
2023-04-25T10:45:17.288Z,1.00
2023-04-25T10:46:31.153Z,1.10
2023-04-25T10:47:46.077Z,1.50
2023-04-25T10:48:58.605Z,1.37
2023-04-25T10:50:10.641Z,1.27
2023-04-25T10:51:23.542Z,1.20
2023-04-25T10:52:37.218Z,1.50
2023-04-25T10:53:57.849Z,1.27
2023-04-25T10:55:09.598Z,1.50
2023-04-25T10:56:22.388Z,1.00
2023-04-25T10:57:34.661Z,1.27
2023-04-25T10:58:47.288Z,1.03
2023-04-25T11:00:13.048Z,1.27
2023-04-25T11:01:26.392Z,0.90
2023-04-25T11:02:38.890Z,1.00
2023-04-25T11:03:51.788Z,0.90
2023-04-25T11:05:03.790Z,1.40
2023-04-25T11:06:28.215Z,1.30
2023-04-25T11:07:43.174Z,1.33
2023-04-25T11:08:55.896Z,1.13
2023-04-25T11:10:07.752Z,0.93
2023-04-25T11:11:19.858Z,0.90
2023-04-25T11:12:32.629Z,1.07
2023-04-25T11:13:44.459Z,0.70
2023-04-25T11:15:06.070Z,0.90
2023-04-25T11:16:26.719Z,1.30
2023-04-25T11:17:41.446Z,0.90
2023-04-25T11:18:53.374Z,1.10
2023-04-25T11:20:09.326Z,1.20
2023-04-25T11:21:21.080Z,0.90
2023-04-25T11:22:32.580Z,0.70
2023-04-25T11:23:46.366Z,0.93
2023-04-25T11:24:57.842Z,0.90
2023-04-25T11:26:09.322Z,0.70
2023-04-25T11:27:22.128Z,0.87
2023-04-25T11:28:33.587Z,1.03
2023-04-25T11:29:45.073Z,0.80
2023-04-25T11:30:57.117Z,0.90
2023-04-25T11:32:08.945Z,0.63
2023-04-25T11:33:24.552Z,0.57
2023-04-25T11:34:36.130Z,0.80
2023-04-25T11:35:47.611Z,0.90
2023-04-25T11:36:59.485Z,1.73
2023-04-25T11:38:11.398Z,0.87
2023-04-25T11:39:23.024Z,1.20
2023-04-25T11:40:34.461Z,1.07
2023-04-25T11:41:46.080Z,1.40
2023-04-25T11:42:57.534Z,1.60
2023-04-25T11:44:08.994Z,1.30
2023-04-25T11:45:20.788Z,0.73
2023-04-25T11:46:34.812Z,0.87
2023-04-25T11:47:47.344Z,1.17
2023-04-25T11:48:58.849Z,1.10
2023-04-25T11:50:10.900Z,0.70
2023-04-25T11:51:22.400Z,1.00
2023-04-25T11:52:36.884Z,1.27
2023-04-25T11:53:48.292Z,1.27
2023-04-25T11:54:59.740Z,0.93
2023-04-25T11:56:12.461Z,1.47
2023-04-25T11:57:23.971Z,0.80
2023-04-25T11:58:54.924Z,1.13
2023-04-25T12:00:16.471Z,1.00
2023-04-25T12:01:31.698Z,1.10
2023-04-25T12:02:57.174Z,0.90
2023-04-25T12:04:15.854Z,1.07
2023-04-25T12:05:32.752Z,0.87
2023-04-25T12:06:48.657Z,0.73
2023-04-25T12:08:11.092Z,0.93
2023-04-25T12:09:28.692Z,0.83
2023-04-25T12:10:41.552Z,0.90
2023-04-25T12:11:56.967Z,1.30
2023-04-25T12:13:24.588Z,0.60
2023-04-25T12:14:36.744Z,0.90
2023-04-25T12:15:48.584Z,0.60
2023-04-25T12:17:00.787Z,0.90
2023-04-25T12:18:12.432Z,0.67
2023-04-25T12:19:24.072Z,0.80
2023-04-25T12:20:36.474Z,1.30
2023-04-25T12:23:06.508Z,0.80
2023-04-25T12:24:26.521Z,1.40
2023-04-25T12:25:42.927Z,2.30
2023-04-25T12:26:55.684Z,1.43
2023-04-25T12:28:11.969Z,1.80
2023-04-25T12:29:26.063Z,1.00
2023-04-25T12:30:58.700Z,0.70
2023-04-25T12:32:10.262Z,0.70
2023-04-25T12:33:22.711Z,0.90
2023-04-25T12:34:36.662Z,0.80
2023-04-25T12:35:48.482Z,0.80
2023-04-25T12:36:59.942Z,1.13
2023-04-25T12:38:11.722Z,1.10
2023-04-25T12:39:24.239Z,0.90
2023-04-25T12:40:35.682Z,0.90
2023-04-25T12:41:47.535Z,0.77
2023-04-25T12:42:58.942Z,0.80
2023-04-25T12:44:10.550Z,1.03
2023-04-25T12:45:22.071Z,0.60
2023-04-25T12:46:33.522Z,0.70
2023-04-25T12:47:45.042Z,0.60
2023-04-25T12:48:58.726Z,0.67
2023-04-25T12:50:14.216Z,0.60
2023-04-25T12:51:26.188Z,0.80
2023-04-25T12:52:37.595Z,0.70
2023-04-25T12:53:49.035Z,0.60
2023-04-25T12:55:00.489Z,0.90
2023-04-25T12:56:12.291Z,0.70
2023-04-25T12:57:23.742Z,0.70
2023-04-25T12:58:35.284Z,0.70
2023-04-25T12:59:46.751Z,0.60
2023-04-25T13:00:58.218Z,1.10
2023-04-25T13:02:10.097Z,0.77
2023-04-25T13:03:22.839Z,0.67
2023-04-25T13:04:34.661Z,0.50
2023-04-25T13:05:46.825Z,0.90
2023-04-25T13:06:58.255Z,0.60
2023-04-25T13:08:09.756Z,0.90
2023-04-25T13:09:21.700Z,0.70
2023-04-25T13:10:34.896Z,0.70
2023-04-25T13:11:47.070Z,1.00
2023-04-25T13:12:58.562Z,1.20
2023-04-25T13:14:10.148Z,1.30
2023-04-25T13:15:21.647Z,0.60
2023-04-25T13:16:33.157Z,0.90
2023-04-25T13:17:44.721Z,0.97
2023-04-25T13:18:57.309Z,0.90
2023-04-25T13:20:10.435Z,2.20
2023-04-25T13:21:21.961Z,1.30
2023-04-25T13:22:33.450Z,0.73
2023-04-25T13:23:45.786Z,1.30
2023-04-25T13:24:57.272Z,1.20
2023-04-25T13:26:08.792Z,1.00
2023-04-25T13:27:20.222Z,0.83
2023-04-25T13:28:31.927Z,0.93
2023-04-25T13:29:43.404Z,1.03
2023-04-25T13:30:55.107Z,1.10
2023-04-25T13:32:06.746Z,0.87
2023-04-25T13:33:18.323Z,1.70
2023-04-25T13:34:30.029Z,1.10
2023-04-25T13:35:42.118Z,0.70
2023-04-25T13:36:53.573Z,0.63
2023-04-25T13:38:05.637Z,1.10
2023-04-25T13:39:17.081Z,0.70
2023-04-25T13:40:28.893Z,1.10
2023-04-25T13:41:40.472Z,1.20
2023-04-25T13:42:52.160Z,0.70
2023-04-25T13:44:03.715Z,1.00
2023-04-25T13:45:15.258Z,0.73
2023-04-25T13:46:44.975Z,0.77
2023-04-25T13:47:57.586Z,1.53
2023-04-25T13:49:12.686Z,0.60
2023-04-25T13:50:25.032Z,0.60
2023-04-25T13:51:36.499Z,0.80
2023-04-25T13:52:48.059Z,2.97
2023-04-25T13:53:59.604Z,2.10
2023-04-25T13:55:11.832Z,2.87
2023-04-25T13:56:24.269Z,2.03
2023-04-25T13:57:36.109Z,1.57
2023-04-25T13:58:47.563Z,2.07
2023-04-25T13:59:58.979Z,1.60
2023-04-25T14:01:10.447Z,1.00
2023-04-25T14:02:22.019Z,1.27
2023-04-25T14:03:33.579Z,1.43
2023-04-25T14:04:45.143Z,1.20
2023-04-25T14:05:56.772Z,0.97
2023-04-25T14:07:08.332Z,0.90
2023-04-25T14:08:19.744Z,0.70
2023-04-25T14:09:31.536Z,0.80
2023-04-25T14:10:42.972Z,0.70
2023-04-25T14:11:54.547Z,0.60
2023-04-25T14:13:07.339Z,2.30
2023-04-25T14:14:20.247Z,1.63
2023-04-25T14:15:34.889Z,0.50
2023-04-25T14:16:47.084Z,1.00
2023-04-25T14:17:58.586Z,2.50
2023-04-25T14:19:10.193Z,1.40
2023-04-25T14:20:22.409Z,3.47
2023-04-25T14:21:34.074Z,2.10
2023-04-25T14:22:45.497Z,2.10
2023-04-25T14:23:57.211Z,1.60
2023-04-25T14:25:08.871Z,1.57
2023-04-25T14:26:20.407Z,0.50
2023-04-25T14:27:34.738Z,0.20
2023-04-25T14:28:46.160Z,1.97
2023-04-25T14:29:57.574Z,6.77
2023-04-25T14:31:09.070Z,1.17
2023-04-25T14:32:21.244Z,0.53
2023-04-25T14:33:32.658Z,0.30
2023-04-25T14:34:44.097Z,0.20
2023-04-25T14:35:55.751Z,0.30
2023-04-25T14:37:07.257Z,0.30
2023-04-25T14:38:19.508Z,0.30
2023-04-25T14:39:31.162Z,0.53
2023-04-25T14:40:42.637Z,0.80
2023-04-25T14:41:54.212Z,0.60
2023-04-25T14:43:05.826Z,2.90
2023-04-25T14:44:17.260Z,2.53
2023-04-25T14:45:28.946Z,2.60
2023-04-25T14:46:40.518Z,2.50
2023-04-25T14:47:52.130Z,1.90
2023-04-25T14:49:04.120Z,1.50
2023-04-25T14:50:16.002Z,1.60
2023-04-25T14:51:27.486Z,1.00
2023-04-25T14:52:39.219Z,0.80
2023-04-25T14:53:52.212Z,1.83
2023-04-25T14:55:06.822Z,1.67
2023-04-25T14:56:18.344Z,3.10
2023-04-25T14:57:29.829Z,3.37
2023-04-25T14:58:41.686Z,2.03
2023-04-25T14:59:54.049Z,2.90
2023-04-25T15:01:05.560Z,3.13
2023-04-25T15:02:17.346Z,3.77
2023-04-25T15:03:28.941Z,2.77
2023-04-25T15:04:40.700Z,2.70
2023-04-25T15:05:53.553Z,1.87
2023-04-25T15:07:05.132Z,2.70
2023-04-25T15:08:19.698Z,4.23
2023-04-25T15:09:31.135Z,4.83
2023-04-25T15:10:42.675Z,2.33
2023-04-25T15:11:54.214Z,1.30
2023-04-25T15:13:05.836Z,1.10
2023-04-25T15:14:17.895Z,1.20
2023-04-25T15:15:29.376Z,1.03
2023-04-25T15:16:40.919Z,1.80
2023-04-25T15:17:52.524Z,1.20
2023-04-25T15:19:06.791Z,1.60
2023-04-25T15:20:18.213Z,1.50
2023-04-25T15:21:30.287Z,1.20
2023-04-25T15:22:42.562Z,1.33
2023-04-25T15:23:54.101Z,2.10
2023-04-25T15:25:05.776Z,1.40
2023-04-25T15:26:17.198Z,1.17
2023-04-25T15:27:28.653Z,1.33
2023-04-25T15:28:40.171Z,1.17
2023-04-25T15:29:51.632Z,0.77
2023-04-25T15:31:03.076Z,0.90
2023-04-25T15:32:14.566Z,1.10
2023-04-25T15:33:26.511Z,1.17
2023-04-25T15:34:37.963Z,1.43
2023-04-25T15:35:49.427Z,0.90
2023-04-25T15:37:01.261Z,0.77
2023-04-25T15:38:13.188Z,0.80
2023-04-25T15:39:24.645Z,1.00
2023-04-25T15:40:36.459Z,1.10
2023-04-25T15:41:47.925Z,0.90
2023-04-25T15:42:59.762Z,1.00
2023-04-25T15:44:11.315Z,0.90
2023-04-25T15:45:25.978Z,0.60
2023-04-25T15:46:37.726Z,1.40
2023-04-25T15:47:51.457Z,1.33
2023-04-25T15:49:03.018Z,0.80
2023-04-25T15:50:17.440Z,0.83
2023-04-25T15:51:28.858Z,1.00
2023-04-25T15:52:40.942Z,1.10
2023-04-25T15:53:52.776Z,1.00
2023-04-25T15:55:05.227Z,0.80
2023-04-25T15:56:16.818Z,0.90
2023-04-25T15:57:28.352Z,1.20
2023-04-25T15:58:39.861Z,1.03
2023-04-25T15:59:51.386Z,1.03
2023-04-25T16:01:05.043Z,1.30
2023-04-25T16:02:17.270Z,1.10
2023-04-25T16:03:29.131Z,1.30
2023-04-25T16:04:41.144Z,1.33
2023-04-25T16:05:53.606Z,1.07
2023-04-25T16:07:05.365Z,1.43
2023-04-25T16:08:16.839Z,1.30